Godman Army Airfield (FTK)

 

Airport Diagram
Current Weather/Forecast (VFR Conditions)
METAR KFTK 210956Z AUTO 18005KT 10SM CLR 15/15 A3015 RMK AO2 SLP210 T01540154
TAF TAF AMD KFTK 202055Z 2020/2201 VRB06KT 9999 SCT005 OVC030 QNH3012INS BECMG 2023/2024 VRB06KT 9999 FEW005 BKN030 QNH3017INS BECMG 2107/2108 VRB03KT 3200 BR BKN050 BKN100 QNH3019INS TX18/2118Z TN14/2112Z LAST NO AMDS AFT 2103 NEXT 2111

Airport Information

All Charts
General
Chart Name View
AIRPORT DIAGRAM
AIRPORT DIAGRAM
TAKEOFF MINIMUMS
TAKEOFF MINIMUMS

Arrivals
Chart Name Download
CHERI FOUR
CHERI FOUR

Approaches
Chart Name Download
ILS OR LOC/DME RWY 18
RNAV (GPS) RWY 15
RNAV (GPS) RWY 18
RNAV (GPS) RWY 36
VOR/DME RWY 15
VOR/DME RWY 18
VOR/DME RWY 36
ILS OR LOC/DME RWY 18
RNAV (GPS) RWY 15
RNAV (GPS) RWY 18
RNAV (GPS) RWY 36
VOR/DME RWY 15
VOR/DME RWY 18
VOR/DME RWY 36


Airport Statistics
Departures Arrivals Local
All Collected Stats since June 2016: 17 15 0
2020 Stats: 6 9 0
October Stats: 0 0 0

Inbound Traffic (Arrivals) - 0

No inbound traffic.


Outbound Traffic (Departures) - 0

No outbound traffic.


Local Traffic (Pattern) - 0

No local traffic.